Terminal Aerodrome Forecast
Issued by NWS

Home | Current Version | Previous Version | Text Only | Print | Product List | Glossary On
Versions: 1 2 3 4 5 6 7 8 9 10 11 12 13 14 15 16 17 18 19 20 21 22 23 24
000
FTUS43 KDLH 171139
TAFBRD
TAF
KBRD 171139Z 1712/1812 00000KT 3/4SM BR SKC
      TEMPO 1712/1714 1/2SM FZFG
     FM171400 25004KT 4SM BR SCT003
     FM171600 20006KT P6SM SCT250=

USA.gov is the U.S. government's official web portal to all federal, state and local government web resources and services.